sensor_id;sensor_type;location;lat;lon;timestamp;temperature;humidity
19496;DHT22;9888;48.606;9.630;2022-10-28T00:01:17;8.70;99.90
19496;DHT22;9888;48.606;9.630;2022-10-28T00:03:48;8.70;99.90
19496;DHT22;9888;48.606;9.630;2022-10-28T00:06:18;8.70;99.90
19496;DHT22;9888;48.606;9.630;2022-10-28T00:08:48;8.70;99.90
19496;DHT22;9888;48.606;9.630;2022-10-28T00:11:17;8.70;99.90
19496;DHT22;9888;48.606;9.630;2022-10-28T00:13:45;8.70;99.90
19496;DHT22;9888;48.606;9.630;2022-10-28T00:16:18;8.60;99.90
19496;DHT22;9888;48.606;9.630;2022-10-28T00:18:46;8.60;99.90
19496;DHT22;9888;48.606;9.630;2022-10-28T00:21:17;8.60;99.90
19496;DHT22;9888;48.606;9.630;2022-10-28T00:23:45;8.70;99.90
19496;DHT22;9888;48.606;9.630;2022-10-28T00:26:20;8.70;99.90
19496;DHT22;9888;48.606;9.630;2022-10-28T00:28:58;8.70;99.90
19496;DHT22;9888;48.606;9.630;2022-10-28T00:31:27;8.70;99.90
19496;DHT22;9888;48.606;9.630;2022-10-28T00:33:55;8.70;99.90
19496;DHT22;9888;48.606;9.630;2022-10-28T00:36:27;8.70;99.90
19496;DHT22;9888;48.606;9.630;2022-10-28T00:38:55;8.70;99.90
19496;DHT22;9888;48.606;9.630;2022-10-28T00:41:24;8.80;99.90
19496;DHT22;9888;48.606;9.630;2022-10-28T00:43:56;8.90;99.90
19496;DHT22;9888;48.606;9.630;2022-10-28T00:48:54;8.80;99.90
19496;DHT22;9888;48.606;9.630;2022-10-28T00:51:24;8.80;99.90
19496;DHT22;9888;48.606;9.630;2022-10-28T00:53:53;8.80;99.90
19496;DHT22;9888;48.606;9.630;2022-10-28T00:56:25;8.80;99.90
19496;DHT22;9888;48.606;9.630;2022-10-28T00:58:55;8.80;99.90
19496;DHT22;9888;48.606;9.630;2022-10-28T01:01:25;8.70;99.90
19496;DHT22;9888;48.606;9.630;2022-10-28T01:03:54;8.70;99.90
19496;DHT22;9888;48.606;9.630;2022-10-28T01:06:23;8.70;99.90
19496;DHT22;9888;48.606;9.630;2022-10-28T01:08:52;8.70;99.90
19496;DHT22;9888;48.606;9.630;2022-10-28T01:11:36;8.70;99.90
19496;DHT22;9888;48.606;9.630;2022-10-28T01:14:22;8.70;99.90
19496;DHT22;9888;48.606;9.630;2022-10-28T01:17:09;8.70;99.90
19496;DHT22;9888;48.606;9.630;2022-10-28T01:22:35;8.60;99.90
19496;DHT22;9888;48.606;9.630;2022-10-28T01:28:11;8.50;99.90
19496;DHT22;9888;48.606;9.630;2022-10-28T01:31:09;8.60;99.90
19496;DHT22;9888;48.606;9.630;2022-10-28T01:36:59;8.60;99.90
19496;DHT22;9888;48.606;9.630;2022-10-28T01:39:46;8.50;99.90
19496;DHT22;9888;48.606;9.630;2022-10-28T01:42:24;8.60;99.90
19496;DHT22;9888;48.606;9.630;2022-10-28T01:45:12;8.50;99.90
19496;DHT22;9888;48.606;9.630;2022-10-28T01:47:44;8.50;99.90
19496;DHT22;9888;48.606;9.630;2022-10-28T01:50:27;8.50;99.90
19496;DHT22;9888;48.606;9.630;2022-10-28T01:53:01;8.50;99.90
19496;DHT22;9888;48.606;9.630;2022-10-28T01:55:41;8.60;99.90
19496;DHT22;9888;48.606;9.630;2022-10-28T01:58:14;8.60;99.90
19496;DHT22;9888;48.606;9.630;2022-10-28T02:00:44;8.60;99.90
19496;DHT22;9888;48.606;9.630;2022-10-28T02:03:13;8.50;99.90
19496;DHT22;9888;48.606;9.630;2022-10-28T02:05:53;8.50;99.90
19496;DHT22;9888;48.606;9.630;2022-10-28T02:11:42;8.50;99.90
19496;DHT22;9888;48.606;9.630;2022-10-28T02:17:30;8.50;99.90
19496;DHT22;9888;48.606;9.630;2022-10-28T02:23:15;8.50;99.90
19496;DHT22;9888;48.606;9.630;2022-10-28T02:26:14;8.40;99.90
19496;DHT22;9888;48.606;9.630;2022-10-28T02:28:49;8.40;99.90
19496;DHT22;9888;48.606;9.630;2022-10-28T02:33:52;8.50;99.90
19496;DHT22;9888;48.606;9.630;2022-10-28T02:36:22;8.50;99.90
19496;DHT22;9888;48.606;9.630;2022-10-28T02:38:54;8.40;99.90
19496;DHT22;9888;48.606;9.630;2022-10-28T02:44:20;8.40;99.90
19496;DHT22;9888;48.606;9.630;2022-10-28T02:46:50;8.40;99.90
19496;DHT22;9888;48.606;9.630;2022-10-28T02:49:18;8.50;99.90
19496;DHT22;9888;48.606;9.630;2022-10-28T02:52:01;8.50;99.90
19496;DHT22;9888;48.606;9.630;2022-10-28T02:57:36;8.50;99.90
19496;DHT22;9888;48.606;9.630;2022-10-28T03:00:17;8.60;99.90
19496;DHT22;9888;48.606;9.630;2022-10-28T03:02:45;8.60;99.90
19496;DHT22;9888;48.606;9.630;2022-10-28T03:05:13;8.60;99.90
19496;DHT22;9888;48.606;9.630;2022-10-28T03:07:40;8.70;99.90
19496;DHT22;9888;48.606;9.630;2022-10-28T03:10:08;8.60;99.90
19496;DHT22;9888;48.606;9.630;2022-10-28T03:12:36;8.60;99.90
19496;DHT22;9888;48.606;9.630;2022-10-28T03:15:03;8.70;99.90
19496;DHT22;9888;48.606;9.630;2022-10-28T03:17:31;8.70;99.90
19496;DHT22;9888;48.606;9.630;2022-10-28T03:19:58;8.60;99.90
19496;DHT22;9888;48.606;9.630;2022-10-28T03:22:26;8.60;99.90
19496;DHT22;9888;48.606;9.630;2022-10-28T03:24:53;8.60;99.90
19496;DHT22;9888;48.606;9.630;2022-10-28T03:27:22;8.60;99.90
19496;DHT22;9888;48.606;9.630;2022-10-28T03:29:49;8.70;99.90
19496;DHT22;9888;48.606;9.630;2022-10-28T03:32:18;8.70;99.90
19496;DHT22;9888;48.606;9.630;2022-10-28T03:34:47;8.80;99.90
19496;DHT22;9888;48.606;9.630;2022-10-28T03:37:14;8.90;99.90
19496;DHT22;9888;48.606;9.630;2022-10-28T03:39:43;8.90;99.90
19496;DHT22;9888;48.606;9.630;2022-10-28T03:42:10;8.90;99.90
19496;DHT22;9888;48.606;9.630;2022-10-28T03:44:39;9.00;99.90
19496;DHT22;9888;48.606;9.630;2022-10-28T03:47:06;9.00;99.90
19496;DHT22;9888;48.606;9.630;2022-10-28T03:49:33;9.00;99.90
19496;DHT22;9888;48.606;9.630;2022-10-28T03:52:02;9.10;99.90
19496;DHT22;9888;48.606;9.630;2022-10-28T03:54:29;9.10;99.90
19496;DHT22;9888;48.606;9.630;2022-10-28T03:56:56;9.10;99.90
19496;DHT22;9888;48.606;9.630;2022-10-28T03:59:24;9.20;99.90
19496;DHT22;9888;48.606;9.630;2022-10-28T04:01:51;9.20;99.90
19496;DHT22;9888;48.606;9.630;2022-10-28T04:04:19;9.20;99.90
19496;DHT22;9888;48.606;9.630;2022-10-28T04:06:48;9.30;99.90
19496;DHT22;9888;48.606;9.630;2022-10-28T04:09:17;9.30;99.90
19496;DHT22;9888;48.606;9.630;2022-10-28T04:12:05;9.40;99.90
19496;DHT22;9888;48.606;9.630;2022-10-28T04:14:33;9.40;99.90
19496;DHT22;9888;48.606;9.630;2022-10-28T04:17:00;9.40;99.90
19496;DHT22;9888;48.606;9.630;2022-10-28T04:19:29;9.60;99.90
19496;DHT22;9888;48.606;9.630;2022-10-28T04:21:58;9.60;99.90
19496;DHT22;9888;48.606;9.630;2022-10-28T04:24:34;9.70;99.90
19496;DHT22;9888;48.606;9.630;2022-10-28T04:27:06;9.70;99.90
19496;DHT22;9888;48.606;9.630;2022-10-28T04:29:35;9.70;99.90
19496;DHT22;9888;48.606;9.630;2022-10-28T04:32:28;9.80;99.90
19496;DHT22;9888;48.606;9.630;2022-10-28T04:35:27;9.90;99.90
19496;DHT22;9888;48.606;9.630;2022-10-28T04:37:56;9.90;99.90
19496;DHT22;9888;48.606;9.630;2022-10-28T04:40:24;10.00;99.90
19496;DHT22;9888;48.606;9.630;2022-10-28T04:42:52;10.00;99.90
19496;DHT22;9888;48.606;9.630;2022-10-28T04:45:26;10.00;99.90
19496;DHT22;9888;48.606;9.630;2022-10-28T04:48:00;10.10;99.90
19496;DHT22;9888;48.606;9.630;2022-10-28T04:50:31;10.10;99.90
19496;DHT22;9888;48.606;9.630;2022-10-28T04:52:59;10.20;99.90
19496;DHT22;9888;48.606;9.630;2022-10-28T04:55:27;10.10;99.90
19496;DHT22;9888;48.606;9.630;2022-10-28T04:57:57;10.20;99.90
19496;DHT22;9888;48.606;9.630;2022-10-28T05:00:31;10.20;99.90
19496;DHT22;9888;48.606;9.630;2022-10-28T05:03:01;10.30;99.90
19496;DHT22;9888;48.606;9.630;2022-10-28T05:05:28;10.40;99.90
19496;DHT22;9888;48.606;9.630;2022-10-28T05:07:55;10.50;99.90
19496;DHT22;9888;48.606;9.630;2022-10-28T05:10:22;10.50;99.90
19496;DHT22;9888;48.606;9.630;2022-10-28T05:12:51;10.60;99.90
19496;DHT22;9888;48.606;9.630;2022-10-28T05:15:20;10.70;99.90
19496;DHT22;9888;48.606;9.630;2022-10-28T05:17:47;10.70;99.90
19496;DHT22;9888;48.606;9.630;2022-10-28T05:20:17;10.80;99.90
19496;DHT22;9888;48.606;9.630;2022-10-28T05:22:49;10.80;99.90
19496;DHT22;9888;48.606;9.630;2022-10-28T05:25:18;10.90;99.90
19496;DHT22;9888;48.606;9.630;2022-10-28T05:27:45;10.90;99.90
19496;DHT22;9888;48.606;9.630;2022-10-28T05:30:13;10.90;99.90
19496;DHT22;9888;48.606;9.630;2022-10-28T05:32:40;11.00;99.90
19496;DHT22;9888;48.606;9.630;2022-10-28T05:35:09;11.00;99.90
19496;DHT22;9888;48.606;9.630;2022-10-28T05:37:38;11.10;99.90
19496;DHT22;9888;48.606;9.630;2022-10-28T05:40:07;11.10;99.90
19496;DHT22;9888;48.606;9.630;2022-10-28T05:43:03;11.10;99.90
19496;DHT22;9888;48.606;9.630;2022-10-28T05:45:33;11.20;99.90
19496;DHT22;9888;48.606;9.630;2022-10-28T05:48:06;11.20;99.90
19496;DHT22;9888;48.606;9.630;2022-10-28T05:50:34;11.20;99.90
19496;DHT22;9888;48.606;9.630;2022-10-28T05:53:04;11.30;99.90
19496;DHT22;9888;48.606;9.630;2022-10-28T05:55:41;11.30;99.90
19496;DHT22;9888;48.606;9.630;2022-10-28T05:58:34;11.40;99.90
19496;DHT22;9888;48.606;9.630;2022-10-28T06:01:06;11.40;99.90
19496;DHT22;9888;48.606;9.630;2022-10-28T06:03:55;11.40;99.90
19496;DHT22;9888;48.606;9.630;2022-10-28T06:06:23;11.50;99.90
19496;DHT22;9888;48.606;9.630;2022-10-28T06:08:50;11.50;99.90
19496;DHT22;9888;48.606;9.630;2022-10-28T06:11:21;11.50;99.90
19496;DHT22;9888;48.606;9.630;2022-10-28T06:13:49;11.60;99.90
19496;DHT22;9888;48.606;9.630;2022-10-28T06:16:16;11.60;99.90
19496;DHT22;9888;48.606;9.630;2022-10-28T06:18:43;11.70;99.90
19496;DHT22;9888;48.606;9.630;2022-10-28T06:21:10;11.70;99.90
19496;DHT22;9888;48.606;9.630;2022-10-28T06:23:37;11.70;99.90
19496;DHT22;9888;48.606;9.630;2022-10-28T06:26:04;11.70;99.90
19496;DHT22;9888;48.606;9.630;2022-10-28T06:28:32;11.70;99.90
19496;DHT22;9888;48.606;9.630;2022-10-28T06:31:08;11.70;99.90
19496;DHT22;9888;48.606;9.630;2022-10-28T06:33:36;11.70;99.90
19496;DHT22;9888;48.606;9.630;2022-10-28T06:36:15;11.80;99.90
19496;DHT22;9888;48.606;9.630;2022-10-28T06:38:44;11.90;99.90
19496;DHT22;9888;48.606;9.630;2022-10-28T06:41:12;11.90;99.90
19496;DHT22;9888;48.606;9.630;2022-10-28T06:43:39;12.00;99.90
19496;DHT22;9888;48.606;9.630;2022-10-28T06:46:07;12.00;99.90
19496;DHT22;9888;48.606;9.630;2022-10-28T06:48:34;12.10;99.90
19496;DHT22;9888;48.606;9.630;2022-10-28T06:51:02;12.20;99.90
19496;DHT22;9888;48.606;9.630;2022-10-28T06:53:29;12.30;99.90
19496;DHT22;9888;48.606;9.630;2022-10-28T06:55:57;12.40;99.90
19496;DHT22;9888;48.606;9.630;2022-10-28T06:58:26;12.50;99.90
19496;DHT22;9888;48.606;9.630;2022-10-28T07:00:53;12.50;99.90
19496;DHT22;9888;48.606;9.630;2022-10-28T07:03:21;12.60;99.90
19496;DHT22;9888;48.606;9.630;2022-10-28T07:05:48;12.70;99.90
19496;DHT22;9888;48.606;9.630;2022-10-28T07:08:20;12.70;99.90
19496;DHT22;9888;48.606;9.630;2022-10-28T07:10:57;12.80;99.90
19496;DHT22;9888;48.606;9.630;2022-10-28T07:13:26;12.90;99.90
19496;DHT22;9888;48.606;9.630;2022-10-28T07:15:55;12.90;99.90
19496;DHT22;9888;48.606;9.630;2022-10-28T07:18:27;13.10;99.90
19496;DHT22;9888;48.606;9.630;2022-10-28T07:21:01;13.10;99.90
19496;DHT22;9888;48.606;9.630;2022-10-28T07:23:29;13.30;99.90
19496;DHT22;9888;48.606;9.630;2022-10-28T07:25:59;13.40;99.90
19496;DHT22;9888;48.606;9.630;2022-10-28T07:28:29;13.50;99.90
19496;DHT22;9888;48.606;9.630;2022-10-28T07:31:03;13.60;99.90
19496;DHT22;9888;48.606;9.630;2022-10-28T07:33:31;13.70;99.90
19496;DHT22;9888;48.606;9.630;2022-10-28T07:35:58;13.80;99.90
19496;DHT22;9888;48.606;9.630;2022-10-28T07:38:29;14.00;99.90
19496;DHT22;9888;48.606;9.630;2022-10-28T07:40:56;14.00;99.90
19496;DHT22;9888;48.606;9.630;2022-10-28T07:43:25;14.20;99.90
19496;DHT22;9888;48.606;9.630;2022-10-28T07:45:56;14.30;99.90
19496;DHT22;9888;48.606;9.630;2022-10-28T07:48:25;14.40;99.90
19496;DHT22;9888;48.606;9.630;2022-10-28T07:50:52;14.50;99.90
19496;DHT22;9888;48.606;9.630;2022-10-28T07:53:25;14.60;99.90
19496;DHT22;9888;48.606;9.630;2022-10-28T07:56:03;14.80;99.90
19496;DHT22;9888;48.606;9.630;2022-10-28T07:58:31;14.90;99.90
19496;DHT22;9888;48.606;9.630;2022-10-28T08:01:05;15.00;99.90
19496;DHT22;9888;48.606;9.630;2022-10-28T08:03:33;15.10;99.90
19496;DHT22;9888;48.606;9.630;2022-10-28T08:06:05;15.30;99.90
19496;DHT22;9888;48.606;9.630;2022-10-28T08:08:32;15.40;99.90
19496;DHT22;9888;48.606;9.630;2022-10-28T08:11:11;15.50;99.90
19496;DHT22;9888;48.606;9.630;2022-10-28T08:13:39;15.70;99.90
19496;DHT22;9888;48.606;9.630;2022-10-28T08:16:07;15.90;99.90
19496;DHT22;9888;48.606;9.630;2022-10-28T08:18:36;15.90;99.90
19496;DHT22;9888;48.606;9.630;2022-10-28T08:21:07;16.00;99.90
19496;DHT22;9888;48.606;9.630;2022-10-28T08:23:36;16.10;99.90
19496;DHT22;9888;48.606;9.630;2022-10-28T08:26:03;16.20;99.90
19496;DHT22;9888;48.606;9.630;2022-10-28T08:28:30;16.30;99.90
19496;DHT22;9888;48.606;9.630;2022-10-28T08:31:01;16.40;99.90
19496;DHT22;9888;48.606;9.630;2022-10-28T08:33:30;16.60;99.90
19496;DHT22;9888;48.606;9.630;2022-10-28T08:35:58;16.70;99.90
19496;DHT22;9888;48.606;9.630;2022-10-28T08:38:25;16.90;99.90
19496;DHT22;9888;48.606;9.630;2022-10-28T08:47:21;17.40;99.90
19496;DHT22;9888;48.606;9.630;2022-10-28T08:49:55;17.50;99.90
19496;DHT22;9888;48.606;9.630;2022-10-28T08:55:51;18.00;99.90
19496;DHT22;9888;48.606;9.630;2022-10-28T08:58:31;18.10;99.90
19496;DHT22;9888;48.606;9.630;2022-10-28T09:01:02;18.20;99.90
19496;DHT22;9888;48.606;9.630;2022-10-28T09:03:40;18.40;99.90
19496;DHT22;9888;48.606;9.630;2022-10-28T09:06:09;18.60;99.90
19496;DHT22;9888;48.606;9.630;2022-10-28T09:08:41;18.60;99.90
19496;DHT22;9888;48.606;9.630;2022-10-28T09:11:37;18.90;99.90
19496;DHT22;9888;48.606;9.630;2022-10-28T09:16:49;19.50;99.90
19496;DHT22;9888;48.606;9.630;2022-10-28T09:19:39;19.80;99.90
19496;DHT22;9888;48.606;9.630;2022-10-28T09:31:35;20.20;99.90
19496;DHT22;9888;48.606;9.630;2022-10-28T09:34:23;20.40;99.90
19496;DHT22;9888;48.606;9.630;2022-10-28T09:40:25;20.70;99.90
19496;DHT22;9888;48.606;9.630;2022-10-28T09:42:59;20.80;99.90
19496;DHT22;9888;48.606;9.630;2022-10-28T09:45:37;20.90;99.90
19496;DHT22;9888;48.606;9.630;2022-10-28T09:50:53;21.20;99.90
19496;DHT22;9888;48.606;9.630;2022-10-28T09:56:38;21.60;99.90
19496;DHT22;9888;48.606;9.630;2022-10-28T09:59:10;21.90;99.90
19496;DHT22;9888;48.606;9.630;2022-10-28T10:01:42;22.00;99.90
19496;DHT22;9888;48.606;9.630;2022-10-28T10:04:33;22.00;99.90
19496;DHT22;9888;48.606;9.630;2022-10-28T10:07:14;22.10;99.90
19496;DHT22;9888;48.606;9.630;2022-10-28T10:09:44;22.20;99.90
19496;DHT22;9888;48.606;9.630;2022-10-28T10:12:12;22.20;99.90
19496;DHT22;9888;48.606;9.630;2022-10-28T10:14:50;22.40;99.90
19496;DHT22;9888;48.606;9.630;2022-10-28T10:17:37;22.70;99.90
19496;DHT22;9888;48.606;9.630;2022-10-28T10:20:16;23.30;99.90
19496;DHT22;9888;48.606;9.630;2022-10-28T10:22:48;24.30;99.90
19496;DHT22;9888;48.606;9.630;2022-10-28T10:25:24;24.30;99.90
19496;DHT22;9888;48.606;9.630;2022-10-28T10:27:59;24.40;99.90
19496;DHT22;9888;48.606;9.630;2022-10-28T10:30:35;24.30;99.90
19496;DHT22;9888;48.606;9.630;2022-10-28T10:33:10;23.90;99.90
19496;DHT22;9888;48.606;9.630;2022-10-28T10:39:02;23.50;99.90
19496;DHT22;9888;48.606;9.630;2022-10-28T10:41:41;23.70;99.90
19496;DHT22;9888;48.606;9.630;2022-10-28T10:44:33;24.10;99.90
19496;DHT22;9888;48.606;9.630;2022-10-28T10:49:33;26.40;99.90
19496;DHT22;9888;48.606;9.630;2022-10-28T10:52:06;29.60;99.90
19496;DHT22;9888;48.606;9.630;2022-10-28T10:55:05;33.10;99.90
19496;DHT22;9888;48.606;9.630;2022-10-28T10:57:36;36.00;99.90
19496;DHT22;9888;48.606;9.630;2022-10-28T11:00:06;36.10;92.10
19496;DHT22;9888;48.606;9.630;2022-10-28T11:02:46;35.40;86.30
19496;DHT22;9888;48.606;9.630;2022-10-28T11:05:20;34.30;83.30
19496;DHT22;9888;48.606;9.630;2022-10-28T11:07:50;32.20;84.70
19496;DHT22;9888;48.606;9.630;2022-10-28T11:10:27;33.00;90.10
19496;DHT22;9888;48.606;9.630;2022-10-28T11:13:05;31.20;86.80
19496;DHT22;9888;48.606;9.630;2022-10-28T11:15:59;29.40;86.90
19496;DHT22;9888;48.606;9.630;2022-10-28T11:18:26;27.50;89.30
19496;DHT22;9888;48.606;9.630;2022-10-28T11:21:23;27.10;91.20
19496;DHT22;9888;48.606;9.630;2022-10-28T11:27:14;26.90;93.60
19496;DHT22;9888;48.606;9.630;2022-10-28T11:29:51;26.70;91.70
19496;DHT22;9888;48.606;9.630;2022-10-28T11:32:28;26.50;91.00
19496;DHT22;9888;48.606;9.630;2022-10-28T11:35:31;26.30;91.10
19496;DHT22;9888;48.606;9.630;2022-10-28T11:38:44;26.20;92.90
19496;DHT22;9888;48.606;9.630;2022-10-28T11:41:41;27.60;92.20
19496;DHT22;9888;48.606;9.630;2022-10-28T11:52:42;27.00;91.00
19496;DHT22;9888;48.606;9.630;2022-10-28T12:05:17;31.10;86.30
19496;DHT22;9888;48.606;9.630;2022-10-28T12:08:25;30.60;84.70
19496;DHT22;9888;48.606;9.630;2022-10-28T12:11:30;28.20;87.20
19496;DHT22;9888;48.606;9.630;2022-10-28T12:16:49;26.40;91.70
19496;DHT22;9888;48.606;9.630;2022-10-28T12:19:35;26.10;92.90
19496;DHT22;9888;48.606;9.630;2022-10-28T12:22:38;25.90;91.30
19496;DHT22;9888;48.606;9.630;2022-10-28T12:25:20;26.30;94.70
19496;DHT22;9888;48.606;9.630;2022-10-28T12:27:57;29.50;91.70
19496;DHT22;9888;48.606;9.630;2022-10-28T12:30:34;31.40;87.40
19496;DHT22;9888;48.606;9.630;2022-10-28T12:33:26;30.80;84.80
19496;DHT22;9888;48.606;9.630;2022-10-28T12:39:18;28.00;89.20
19496;DHT22;9888;48.606;9.630;2022-10-28T12:41:41;27.40;89.30
19496;DHT22;9888;48.606;9.630;2022-10-28T12:47:38;26.90;93.00
19496;DHT22;9888;48.606;9.630;2022-10-28T12:50:37;26.70;94.00
19496;DHT22;9888;48.606;9.630;2022-10-28T12:59:37;26.10;96.60
19496;DHT22;9888;48.606;9.630;2022-10-28T13:02:29;25.90;95.20
19496;DHT22;9888;48.606;9.630;2022-10-28T13:04:58;25.70;95.70
19496;DHT22;9888;48.606;9.630;2022-10-28T13:10:37;25.40;96.80
19496;DHT22;9888;48.606;9.630;2022-10-28T13:13:23;25.20;95.60
19496;DHT22;9888;48.606;9.630;2022-10-28T13:19:02;25.30;97.70
19496;DHT22;9888;48.606;9.630;2022-10-28T13:27:34;29.80;97.80
19496;DHT22;9888;48.606;9.630;2022-10-28T13:30:13;31.20;97.00
19496;DHT22;9888;48.606;9.630;2022-10-28T13:33:16;32.90;93.70
19496;DHT22;9888;48.606;9.630;2022-10-28T13:35:51;34.00;95.30
19496;DHT22;9888;48.606;9.630;2022-10-28T13:38:25;34.80;92.70
19496;DHT22;9888;48.606;9.630;2022-10-28T13:47:37;35.50;91.40
19496;DHT22;9888;48.606;9.630;2022-10-28T13:50:12;35.60;90.40
19496;DHT22;9888;48.606;9.630;2022-10-28T13:52:44;35.50;82.90
19496;DHT22;9888;48.606;9.630;2022-10-28T13:55:23;35.00;87.90
19496;DHT22;9888;48.606;9.630;2022-10-28T13:58:20;34.40;84.70
19496;DHT22;9888;48.606;9.630;2022-10-28T14:00:56;33.60;87.50
19496;DHT22;9888;48.606;9.630;2022-10-28T14:03:51;32.80;88.10
19496;DHT22;9888;48.606;9.630;2022-10-28T14:06:31;31.50;87.10
19496;DHT22;9888;48.606;9.630;2022-10-28T14:09:01;30.90;89.80
19496;DHT22;9888;48.606;9.630;2022-10-28T14:11:45;30.40;92.70
19496;DHT22;9888;48.606;9.630;2022-10-28T14:14:19;30.10;92.80
19496;DHT22;9888;48.606;9.630;2022-10-28T14:16:49;29.70;92.50
19496;DHT22;9888;48.606;9.630;2022-10-28T14:19:37;29.00;92.90
19496;DHT22;9888;48.606;9.630;2022-10-28T14:22:11;28.10;93.70
19496;DHT22;9888;48.606;9.630;2022-10-28T14:24:44;27.30;95.80
19496;DHT22;9888;48.606;9.630;2022-10-28T14:27:38;26.90;96.20
19496;DHT22;9888;48.606;9.630;2022-10-28T14:30:25;26.50;96.60
19496;DHT22;9888;48.606;9.630;2022-10-28T14:33:21;26.40;98.80
19496;DHT22;9888;48.606;9.630;2022-10-28T14:45:29;27.00;95.00
19496;DHT22;9888;48.606;9.630;2022-10-28T14:49:03;26.70;97.60
19496;DHT22;9888;48.606;9.630;2022-10-28T14:51:45;26.40;97.70
19496;DHT22;9888;48.606;9.630;2022-10-28T14:54:48;26.10;95.00
19496;DHT22;9888;48.606;9.630;2022-10-28T14:57:39;25.70;97.50
19496;DHT22;9888;48.606;9.630;2022-10-28T15:00:14;25.30;99.60
19496;DHT22;9888;48.606;9.630;2022-10-28T15:09:24;24.00;99.90
19496;DHT22;9888;48.606;9.630;2022-10-28T15:12:03;23.60;99.90
19496;DHT22;9888;48.606;9.630;2022-10-28T15:17:57;22.80;99.90
19496;DHT22;9888;48.606;9.630;2022-10-28T15:20:34;22.40;99.90
19496;DHT22;9888;48.606;9.630;2022-10-28T15:23:21;22.00;99.90
19496;DHT22;9888;48.606;9.630;2022-10-28T15:26:13;21.60;99.90
19496;DHT22;9888;48.606;9.630;2022-10-28T15:29:09;21.30;99.90
19496;DHT22;9888;48.606;9.630;2022-10-28T15:34:31;20.70;99.90
19496;DHT22;9888;48.606;9.630;2022-10-28T15:37:04;20.50;99.90
19496;DHT22;9888;48.606;9.630;2022-10-28T15:39:35;20.40;99.90
19496;DHT22;9888;48.606;9.630;2022-10-28T15:42:38;20.30;99.90
19496;DHT22;9888;48.606;9.630;2022-10-28T15:45:19;20.20;99.90
19496;DHT22;9888;48.606;9.630;2022-10-28T15:47:50;20.00;99.90
19496;DHT22;9888;48.606;9.630;2022-10-28T15:50:26;19.80;99.90
19496;DHT22;9888;48.606;9.630;2022-10-28T15:56:26;19.50;99.90
19496;DHT22;9888;48.606;9.630;2022-10-28T15:59:17;19.30;99.90
19496;DHT22;9888;48.606;9.630;2022-10-28T16:01:54;19.00;99.90
19496;DHT22;9888;48.606;9.630;2022-10-28T16:11:21;18.50;99.90
19496;DHT22;9888;48.606;9.630;2022-10-28T16:19:43;17.70;99.90
19496;DHT22;9888;48.606;9.630;2022-10-28T16:22:13;17.60;99.90
19496;DHT22;9888;48.606;9.630;2022-10-28T16:24:43;17.40;99.90
19496;DHT22;9888;48.606;9.630;2022-10-28T16:27:29;17.30;99.90
19496;DHT22;9888;48.606;9.630;2022-10-28T16:29:59;17.20;99.90
19496;DHT22;9888;48.606;9.630;2022-10-28T16:32:39;17.10;99.90
19496;DHT22;9888;48.606;9.630;2022-10-28T16:35:17;17.00;99.90
19496;DHT22;9888;48.606;9.630;2022-10-28T16:37:49;16.90;99.90
19496;DHT22;9888;48.606;9.630;2022-10-28T16:40:19;16.90;99.90
19496;DHT22;9888;48.606;9.630;2022-10-28T16:42:49;16.80;99.90
19496;DHT22;9888;48.606;9.630;2022-10-28T16:45:19;16.70;99.90
19496;DHT22;9888;48.606;9.630;2022-10-28T22:12:28;10.70;99.90
19496;DHT22;9888;48.606;9.630;2022-10-28T22:14:56;10.70;99.90
19496;DHT22;9888;48.606;9.630;2022-10-28T22:17:23;10.60;99.90
19496;DHT22;9888;48.606;9.630;2022-10-28T22:19:50;10.60;99.90
19496;DHT22;9888;48.606;9.630;2022-10-28T22:22:18;10.70;99.90
19496;DHT22;9888;48.606;9.630;2022-10-28T22:24:45;10.80;99.90
19496;DHT22;9888;48.606;9.630;2022-10-28T22:27:14;10.70;99.90
19496;DHT22;9888;48.606;9.630;2022-10-28T22:29:42;10.80;99.90
19496;DHT22;9888;48.606;9.630;2022-10-28T22:32:10;10.80;99.90
19496;DHT22;9888;48.606;9.630;2022-10-28T22:34:37;10.80;99.90
19496;DHT22;9888;48.606;9.630;2022-10-28T22:37:06;10.70;99.90
19496;DHT22;9888;48.606;9.630;2022-10-28T22:39:33;10.80;99.90
19496;DHT22;9888;48.606;9.630;2022-10-28T22:42:02;10.80;99.90
19496;DHT22;9888;48.606;9.630;2022-10-28T22:44:29;10.80;99.90
19496;DHT22;9888;48.606;9.630;2022-10-28T22:46:57;10.90;99.90
19496;DHT22;9888;48.606;9.630;2022-10-28T22:49:27;10.90;99.90
19496;DHT22;9888;48.606;9.630;2022-10-28T22:51:54;10.90;99.90
19496;DHT22;9888;48.606;9.630;2022-10-28T22:54:22;10.90;99.90
19496;DHT22;9888;48.606;9.630;2022-10-28T22:56:50;10.90;99.90
19496;DHT22;9888;48.606;9.630;2022-10-28T22:59:17;10.90;99.90
19496;DHT22;9888;48.606;9.630;2022-10-28T23:01:45;10.80;99.90
19496;DHT22;9888;48.606;9.630;2022-10-28T23:04:12;10.80;99.90
19496;DHT22;9888;48.606;9.630;2022-10-28T23:06:39;10.80;99.90
19496;DHT22;9888;48.606;9.630;2022-10-28T23:09:07;10.80;99.90
19496;DHT22;9888;48.606;9.630;2022-10-28T23:11:35;10.90;99.90
19496;DHT22;9888;48.606;9.630;2022-10-28T23:14:02;10.90;99.90
19496;DHT22;9888;48.606;9.630;2022-10-28T23:16:29;10.90;99.90
19496;DHT22;9888;48.606;9.630;2022-10-28T23:19:00;10.80;99.90
19496;DHT22;9888;48.606;9.630;2022-10-28T23:21:28;10.80;99.90
19496;DHT22;9888;48.606;9.630;2022-10-28T23:23:57;10.80;99.90
19496;DHT22;9888;48.606;9.630;2022-10-28T23:26:26;10.90;99.90
19496;DHT22;9888;48.606;9.630;2022-10-28T23:28:55;10.90;99.90
19496;DHT22;9888;48.606;9.630;2022-10-28T23:31:24;10.90;99.90
19496;DHT22;9888;48.606;9.630;2022-10-28T23:33:53;10.90;99.90
19496;DHT22;9888;48.606;9.630;2022-10-28T23:36:21;10.90;99.90
19496;DHT22;9888;48.606;9.630;2022-10-28T23:38:48;10.80;99.90
19496;DHT22;9888;48.606;9.630;2022-10-28T23:41:16;10.70;99.90
19496;DHT22;9888;48.606;9.630;2022-10-28T23:43:45;10.70;99.90
19496;DHT22;9888;48.606;9.630;2022-10-28T23:46:13;10.80;99.90
19496;DHT22;9888;48.606;9.630;2022-10-28T23:48:44;10.80;99.90
19496;DHT22;9888;48.606;9.630;2022-10-28T23:51:12;10.80;99.90
19496;DHT22;9888;48.606;9.630;2022-10-28T23:53:39;10.80;99.90
19496;DHT22;9888;48.606;9.630;2022-10-28T23:56:06;10.70;99.90
19496;DHT22;9888;48.606;9.630;2022-10-28T23:58:34;10.60;99.90
